createdAt,value
2018-12-20T00:01:35.578Z,30.20
2018-12-20T00:04:09.574Z,29.57
2018-12-20T00:06:43.453Z,30.30
2018-12-20T00:09:17.623Z,31.80
2018-12-20T00:11:51.585Z,31.47
2018-12-20T00:14:29.871Z,30.33
2018-12-20T00:17:07.201Z,37.40
2018-12-20T00:19:40.957Z,32.53
2018-12-20T00:22:14.997Z,32.27
2018-12-20T00:24:48.815Z,32.00
2018-12-20T00:27:22.682Z,33.40
2018-12-20T00:29:56.471Z,38.17
2018-12-20T00:32:30.530Z,33.37
2018-12-20T00:35:04.503Z,29.47
2018-12-20T00:37:38.317Z,33.07
2018-12-20T00:40:12.217Z,38.33
2018-12-20T00:42:46.373Z,29.43
2018-12-20T00:45:20.339Z,31.23
2018-12-20T00:47:54.279Z,30.57
2018-12-20T00:50:28.102Z,32.30
2018-12-20T00:53:02.017Z,36.87
2018-12-20T00:55:36.164Z,31.43
2018-12-20T00:58:09.921Z,38.50
2018-12-20T01:00:43.749Z,33.30
2018-12-20T01:03:17.618Z,33.73
2018-12-20T01:05:51.425Z,31.23
2018-12-20T01:08:25.382Z,30.33
2018-12-20T01:10:59.410Z,32.03
2018-12-20T01:13:33.256Z,28.83
2018-12-20T01:16:07.314Z,30.23
2018-12-20T01:18:41.508Z,35.80
2018-12-20T01:21:15.745Z,31.37
2018-12-20T01:23:49.665Z,36.90
2018-12-20T01:26:23.529Z,34.90
2018-12-20T01:28:57.271Z,32.83
2018-12-20T01:31:31.110Z,29.10
2018-12-20T01:34:05.260Z,31.97
2018-12-20T01:36:39.151Z,35.60
2018-12-20T01:39:13.272Z,34.30
2018-12-20T01:41:47.230Z,34.93
2018-12-20T01:44:21.033Z,34.80
2018-12-20T01:46:55.087Z,38.87
2018-12-20T01:49:28.814Z,37.27
2018-12-20T01:52:02.940Z,34.87
2018-12-20T01:54:37.143Z,35.03
2018-12-20T01:57:11.146Z,38.00
2018-12-20T01:59:45.092Z,40.90
2018-12-20T02:02:18.975Z,39.03
2018-12-20T02:04:53.221Z,40.23
2018-12-20T02:07:27.141Z,36.40
2018-12-20T02:10:01.169Z,39.00
2018-12-20T02:12:35.222Z,35.97
2018-12-20T02:15:09.606Z,39.47
2018-12-20T02:17:43.576Z,36.37
2018-12-20T02:20:17.661Z,39.43
2018-12-20T02:22:51.510Z,35.70
2018-12-20T02:25:25.407Z,40.30
2018-12-20T02:27:59.694Z,36.43
2018-12-20T02:30:35.254Z,38.20
2018-12-20T02:33:09.213Z,37.80
2018-12-20T02:35:42.964Z,38.63
2018-12-20T02:38:17.057Z,36.83
2018-12-20T02:40:50.926Z,41.73
2018-12-20T02:43:24.779Z,38.03
2018-12-20T02:45:58.650Z,39.73
2018-12-20T02:48:32.435Z,35.13
2018-12-20T02:51:06.599Z,39.13
2018-12-20T02:53:40.816Z,40.37
2018-12-20T02:56:14.730Z,39.30
2018-12-20T02:58:48.598Z,39.77
2018-12-20T03:01:22.559Z,39.73
2018-12-20T03:03:56.520Z,39.60
2018-12-20T03:06:30.485Z,38.40
2018-12-20T03:09:06.885Z,40.47
2018-12-20T03:11:40.843Z,35.83
2018-12-20T03:14:14.851Z,38.87
2018-12-20T03:16:48.950Z,38.70
2018-12-20T03:19:23.470Z,38.17
2018-12-20T03:21:57.588Z,38.50
2018-12-20T03:24:31.753Z,38.63
2018-12-20T03:27:05.658Z,36.83
2018-12-20T03:29:39.934Z,40.93
2018-12-20T03:32:14.094Z,38.97
2018-12-20T03:34:47.978Z,37.70
2018-12-20T03:37:21.998Z,38.67
2018-12-20T03:39:56.869Z,40.60
2018-12-20T03:42:30.838Z,42.47
2018-12-20T03:45:04.849Z,43.17
2018-12-20T03:47:38.583Z,39.77
2018-12-20T03:50:12.752Z,46.57
2018-12-20T03:52:46.778Z,40.37
2018-12-20T03:55:20.753Z,42.97
2018-12-20T03:57:54.572Z,41.47
2018-12-20T04:00:28.740Z,42.30
2018-12-20T04:03:02.539Z,41.73
2018-12-20T04:05:36.254Z,41.63
2018-12-20T04:08:10.119Z,41.80
2018-12-20T04:10:44.060Z,39.23
2018-12-20T04:13:18.143Z,38.30
2018-12-20T04:15:52.103Z,39.00
2018-12-20T04:18:26.230Z,38.83
2018-12-20T04:21:00.583Z,39.83
2018-12-20T04:23:34.538Z,42.33
2018-12-20T04:26:08.689Z,36.43
2018-12-20T04:28:42.453Z,39.90
2018-12-20T04:31:16.543Z,33.13
2018-12-20T04:33:50.703Z,40.70
2018-12-20T04:36:24.575Z,39.03
2018-12-20T04:38:58.485Z,36.07
2018-12-20T04:41:32.475Z,39.43
2018-12-20T04:44:06.483Z,37.90
2018-12-20T04:46:40.401Z,38.30
2018-12-20T04:49:14.407Z,36.90
2018-12-20T04:51:48.587Z,38.27
2018-12-20T04:54:22.325Z,35.73
2018-12-20T04:56:56.482Z,33.73
2018-12-20T04:59:30.601Z,36.97
2018-12-20T05:02:04.551Z,39.53
2018-12-20T05:04:38.326Z,39.83
2018-12-20T05:07:12.275Z,35.90
2018-12-20T05:09:46.242Z,39.77
2018-12-20T05:12:20.143Z,38.37
2018-12-20T05:14:54.212Z,40.27
2018-12-20T05:17:28.136Z,38.03
2018-12-20T05:20:01.919Z,37.97
2018-12-20T05:22:36.095Z,35.73
2018-12-20T05:25:10.128Z,36.43
2018-12-20T05:27:43.919Z,37.10
2018-12-20T05:30:17.924Z,35.60
2018-12-20T05:32:51.799Z,37.50
2018-12-20T05:35:26.007Z,41.90
2018-12-20T05:37:59.943Z,39.43
2018-12-20T05:40:33.868Z,38.40
2018-12-20T05:43:07.878Z,37.03
2018-12-20T05:45:42.033Z,39.80
2018-12-20T05:48:16.038Z,39.83
2018-12-20T05:50:49.943Z,40.23
2018-12-20T05:53:24.019Z,42.67
2018-12-20T05:55:58.020Z,37.43
2018-12-20T05:58:31.892Z,42.77
2018-12-20T06:01:06.134Z,40.23
2018-12-20T06:03:39.860Z,38.83
2018-12-20T06:06:13.714Z,37.23
2018-12-20T06:08:47.550Z,38.07
2018-12-20T06:11:21.324Z,38.40
2018-12-20T06:13:55.371Z,39.10
2018-12-20T06:16:29.373Z,41.17
2018-12-20T06:19:03.312Z,37.80
2018-12-20T06:21:37.169Z,39.53
2018-12-20T06:24:10.917Z,39.60
2018-12-20T06:26:44.755Z,36.87
2018-12-20T06:29:18.648Z,37.93
2018-12-20T06:31:52.473Z,40.67
2018-12-20T06:34:26.565Z,38.30
2018-12-20T06:37:00.505Z,37.43
2018-12-20T06:39:34.314Z,37.30
2018-12-20T06:42:08.153Z,39.27
2018-12-20T06:44:42.021Z,39.90
2018-12-20T06:47:16.063Z,39.30
2018-12-20T06:49:49.837Z,35.40
2018-12-20T06:52:23.701Z,40.53
2018-12-20T06:54:57.887Z,36.77
2018-12-20T06:57:31.843Z,39.20
2018-12-20T07:00:08.186Z,39.27
2018-12-20T07:02:42.247Z,36.30
2018-12-20T07:05:16.443Z,38.57
2018-12-20T07:07:50.342Z,38.77
2018-12-20T07:10:24.335Z,36.03
2018-12-20T07:13:02.497Z,38.17
2018-12-20T07:15:36.472Z,36.40
2018-12-20T07:18:10.358Z,36.03
2018-12-20T07:20:44.277Z,42.47
2018-12-20T07:23:18.116Z,41.17
2018-12-20T07:25:51.913Z,39.60
2018-12-20T07:28:25.841Z,38.30
2018-12-20T07:30:59.628Z,36.27
2018-12-20T07:33:33.450Z,38.07
2018-12-20T07:36:07.296Z,39.33
2018-12-20T07:38:41.191Z,37.17
2018-12-20T07:41:14.961Z,33.60
2018-12-20T07:43:48.769Z,38.90
2018-12-20T07:46:22.747Z,37.33
2018-12-20T07:48:56.696Z,40.43
2018-12-20T07:51:30.538Z,35.83
2018-12-20T07:54:04.447Z,41.30
2018-12-20T07:56:38.233Z,39.03
2018-12-20T07:59:12.089Z,35.80
2018-12-20T08:01:45.787Z,38.93
2018-12-20T08:04:19.552Z,36.53
2018-12-20T08:06:53.359Z,38.60
2018-12-20T08:09:28.660Z,37.60
2018-12-20T08:12:02.423Z,38.13
2018-12-20T08:14:36.398Z,42.83
2018-12-20T08:17:10.383Z,37.77
2018-12-20T08:19:44.141Z,37.10
2018-12-20T08:22:18.186Z,40.63
2018-12-20T08:24:51.975Z,42.97
2018-12-20T08:27:25.939Z,36.50
2018-12-20T08:29:59.665Z,40.23
2018-12-20T08:32:33.475Z,40.27
2018-12-20T08:35:07.337Z,45.77
2018-12-20T08:37:41.008Z,41.80
2018-12-20T08:40:14.914Z,37.93
2018-12-20T08:42:48.744Z,46.13
2018-12-20T08:45:22.561Z,40.67
2018-12-20T08:47:56.374Z,43.07
2018-12-20T08:50:30.214Z,43.20
2018-12-20T08:53:04.068Z,46.23
2018-12-20T08:55:37.833Z,42.83
2018-12-20T08:58:11.668Z,43.77
2018-12-20T09:00:45.446Z,38.77
2018-12-20T09:03:19.189Z,43.33
2018-12-20T09:05:53.017Z,41.33
2018-12-20T09:08:26.859Z,35.97
2018-12-20T09:11:00.776Z,40.93
2018-12-20T09:13:34.636Z,40.50
2018-12-20T09:16:08.519Z,39.27
2018-12-20T09:18:42.592Z,38.10
2018-12-20T09:21:16.398Z,40.47
2018-12-20T09:23:50.233Z,39.13
2018-12-20T09:26:23.999Z,36.77
2018-12-20T09:28:57.818Z,34.87
2018-12-20T09:31:31.607Z,32.23
2018-12-20T09:34:05.460Z,37.60
2018-12-20T09:36:39.381Z,35.43
2018-12-20T09:39:13.213Z,32.40
2018-12-20T09:41:47.166Z,35.83
2018-12-20T09:44:21.289Z,33.87
2018-12-20T09:46:57.274Z,30.67
2018-12-20T09:49:31.044Z,33.73
2018-12-20T09:52:04.986Z,35.80
2018-12-20T09:54:38.769Z,30.40
2018-12-20T09:57:12.827Z,26.80
2018-12-20T09:59:46.513Z,31.53
2018-12-20T10:02:20.344Z,31.37
2018-12-20T10:04:54.146Z,28.63
2018-12-20T10:07:27.925Z,26.27
2018-12-20T10:10:01.773Z,27.40
2018-12-20T10:12:35.666Z,30.10
2018-12-20T10:15:09.514Z,25.37
2018-12-20T10:17:43.240Z,22.23
2018-12-20T10:20:17.044Z,24.13
2018-12-20T10:22:50.924Z,20.47
2018-12-20T10:25:24.665Z,20.50
2018-12-20T10:27:58.610Z,18.73
2018-12-20T10:30:33.098Z,19.37
2018-12-20T10:33:07.063Z,18.03
2018-12-20T10:35:40.881Z,18.50
2018-12-20T10:38:15.583Z,15.37
2018-12-20T10:40:49.512Z,12.70
2018-12-20T10:43:23.564Z,18.60
2018-12-20T10:45:57.517Z,12.97
2018-12-20T10:48:31.333Z,16.77
2018-12-20T10:51:05.089Z,12.37
2018-12-20T10:53:38.898Z,10.07
2018-12-20T10:56:12.729Z,8.30
2018-12-20T10:58:46.645Z,9.50
2018-12-20T11:01:26.261Z,9.77
2018-12-20T11:04:05.780Z,9.17
2018-12-20T11:06:45.421Z,8.13
2018-12-20T11:09:24.909Z,8.90
2018-12-20T11:12:05.456Z,11.77
2018-12-20T11:14:39.288Z,11.03
2018-12-20T11:17:13.137Z,10.60
2018-12-20T11:19:46.970Z,10.33
2018-12-20T11:22:21.281Z,11.40
2018-12-20T11:24:55.121Z,10.70
2018-12-20T11:27:29.220Z,10.77
2018-12-20T11:30:03.285Z,11.77
2018-12-20T11:32:37.195Z,10.23
2018-12-20T11:35:11.024Z,10.63
2018-12-20T11:37:44.797Z,10.27
2018-12-20T11:40:18.789Z,10.47
2018-12-20T11:42:52.765Z,10.77
2018-12-20T11:45:26.611Z,10.83
2018-12-20T11:48:00.551Z,11.00
2018-12-20T11:50:34.379Z,10.40
2018-12-20T11:53:08.251Z,11.67
2018-12-20T11:55:42.101Z,11.30
2018-12-20T11:58:15.922Z,12.20
2018-12-20T12:00:49.713Z,11.53
2018-12-20T12:03:23.389Z,12.40
2018-12-20T12:05:57.225Z,11.23
2018-12-20T12:08:31.047Z,10.40
2018-12-20T12:11:04.820Z,10.30
2018-12-20T12:13:38.741Z,9.17
2018-12-20T12:16:12.589Z,10.73
2018-12-20T12:18:46.396Z,9.93
2018-12-20T12:21:20.229Z,5.60
2018-12-20T12:23:54.049Z,7.33
2018-12-20T12:26:27.829Z,6.57
2018-12-20T12:29:01.585Z,8.40
2018-12-20T12:31:35.406Z,8.77
2018-12-20T12:34:09.182Z,6.83
2018-12-20T12:36:43.024Z,8.57
2018-12-20T12:39:16.780Z,5.97
2018-12-20T12:41:50.621Z,6.33
2018-12-20T12:44:24.381Z,6.70
2018-12-20T12:46:58.208Z,5.80
2018-12-20T12:49:32.121Z,6.37
2018-12-20T12:52:05.922Z,8.33
2018-12-20T12:54:39.810Z,6.10
2018-12-20T12:57:13.593Z,7.43
2018-12-20T12:59:47.400Z,6.73
2018-12-20T13:02:21.194Z,7.87
2018-12-20T13:04:55.110Z,6.43
2018-12-20T13:07:28.899Z,4.90
2018-12-20T13:10:02.922Z,5.07
2018-12-20T13:12:36.891Z,4.30
2018-12-20T13:15:11.347Z,5.00
2018-12-20T13:17:45.305Z,6.20
2018-12-20T13:20:19.198Z,5.33
2018-12-20T13:22:52.975Z,5.40
2018-12-20T13:25:26.810Z,6.13
2018-12-20T13:28:00.658Z,5.30
2018-12-20T13:30:34.632Z,7.17
2018-12-20T13:33:08.397Z,6.10
2018-12-20T13:35:42.181Z,6.13
2018-12-20T13:38:16.106Z,5.70
2018-12-20T13:40:49.973Z,3.87
2018-12-20T13:43:23.869Z,7.37
2018-12-20T13:45:57.723Z,2.57
2018-12-20T13:48:31.465Z,3.23
2018-12-20T13:51:05.237Z,5.03
2018-12-20T13:53:38.953Z,5.43
2018-12-20T13:56:12.764Z,4.13
2018-12-20T13:58:46.540Z,4.10
2018-12-20T14:01:20.313Z,6.87
2018-12-20T14:03:54.122Z,3.93
2018-12-20T14:06:28.072Z,5.40
2018-12-20T14:09:01.843Z,5.23
2018-12-20T14:11:35.706Z,4.10
2018-12-20T14:14:09.641Z,5.93
2018-12-20T14:16:43.487Z,5.43
2018-12-20T14:19:17.364Z,5.10
2018-12-20T14:21:51.251Z,3.60
2018-12-20T14:24:25.177Z,4.40
2018-12-20T14:26:59.085Z,5.20
2018-12-20T14:29:33.616Z,2.90
2018-12-20T14:32:07.524Z,3.70
2018-12-20T14:34:41.408Z,4.07
2018-12-20T14:37:15.314Z,2.63
2018-12-20T14:39:49.213Z,4.50
2018-12-20T14:42:23.157Z,5.93
2018-12-20T14:44:56.897Z,5.67
2018-12-20T14:47:30.641Z,4.90
2018-12-20T14:50:06.036Z,4.13
2018-12-20T14:52:39.981Z,3.30
2018-12-20T14:55:13.908Z,4.87
2018-12-20T14:57:48.025Z,5.93
2018-12-20T15:00:21.912Z,4.00
2018-12-20T15:02:55.785Z,4.33
2018-12-20T15:05:29.753Z,4.80
2018-12-20T15:08:03.731Z,4.47
2018-12-20T15:10:37.670Z,4.07
2018-12-20T15:13:11.496Z,5.33
2018-12-20T15:15:45.321Z,3.77
2018-12-20T15:18:18.991Z,5.63
2018-12-20T15:20:52.772Z,5.13
2018-12-20T15:23:26.632Z,3.43
2018-12-20T15:26:00.489Z,2.97
2018-12-20T15:28:34.281Z,4.07
2018-12-20T15:31:08.174Z,5.23
2018-12-20T15:33:42.156Z,4.27
2018-12-20T15:36:15.981Z,4.90
2018-12-20T15:38:49.965Z,5.67
2018-12-20T15:41:23.938Z,3.47
2018-12-20T15:43:57.821Z,4.63
2018-12-20T15:46:31.791Z,5.63
2018-12-20T15:49:05.532Z,3.27
2018-12-20T15:51:39.346Z,2.90
2018-12-20T15:54:13.164Z,5.30
2018-12-20T15:56:46.905Z,2.73
2018-12-20T15:59:20.716Z,5.50
2018-12-20T16:01:55.539Z,3.67
2018-12-20T16:04:29.753Z,3.10
2018-12-20T16:07:03.758Z,3.60
2018-12-20T16:09:37.684Z,3.67
2018-12-20T16:12:11.524Z,4.23
2018-12-20T16:14:45.318Z,5.17
2018-12-20T16:17:19.150Z,5.00
2018-12-20T16:19:52.992Z,4.03
2018-12-20T16:22:26.642Z,2.37
2018-12-20T16:25:00.503Z,3.10
2018-12-20T16:27:34.442Z,2.07
2018-12-20T16:30:10.185Z,4.27
2018-12-20T16:32:43.877Z,4.40
2018-12-20T16:35:17.705Z,4.43
2018-12-20T16:37:51.465Z,5.73
2018-12-20T16:40:25.307Z,3.37
2018-12-20T16:42:59.058Z,4.23
2018-12-20T16:45:32.913Z,3.23
2018-12-20T16:48:06.688Z,4.13
2018-12-20T16:50:40.493Z,3.40
2018-12-20T16:53:14.455Z,2.83
2018-12-20T16:55:50.215Z,3.60
2018-12-20T16:58:24.017Z,5.47
2018-12-20T17:00:57.942Z,4.07
2018-12-20T17:03:31.801Z,3.77
2018-12-20T17:06:05.560Z,3.47
2018-12-20T17:08:47.811Z,3.83
2018-12-20T17:11:15.423Z,6.30
2018-12-20T17:13:49.264Z,4.50
2018-12-20T17:16:23.145Z,5.20
2018-12-20T17:18:57.163Z,5.17
2018-12-20T17:21:30.956Z,4.43
2018-12-20T17:24:04.839Z,6.23
2018-12-20T17:26:38.820Z,3.30
2018-12-20T17:29:12.809Z,5.30
2018-12-20T17:31:46.623Z,2.37
2018-12-20T17:34:20.394Z,3.37
2018-12-20T17:36:54.289Z,5.47
2018-12-20T17:39:28.207Z,2.87
2018-12-20T17:42:16.738Z,5.70
2018-12-20T17:44:51.577Z,4.87
2018-12-20T17:47:25.408Z,5.03
2018-12-20T17:49:59.272Z,3.60
2018-12-20T17:52:33.290Z,5.30
2018-12-20T17:55:07.284Z,6.07
2018-12-20T17:57:41.188Z,4.47
2018-12-20T18:00:15.069Z,7.00
2018-12-20T18:02:48.815Z,3.90
2018-12-20T18:05:22.601Z,5.00
2018-12-20T18:07:56.583Z,6.83
2018-12-20T18:10:30.577Z,6.20
2018-12-20T18:13:04.432Z,6.77
2018-12-20T18:15:38.135Z,4.43
2018-12-20T18:18:11.947Z,6.03
2018-12-20T18:20:45.891Z,5.33
2018-12-20T18:23:19.935Z,3.60
2018-12-20T18:25:53.677Z,5.60
2018-12-20T18:28:27.556Z,6.07
2018-12-20T18:31:01.313Z,4.77
2018-12-20T18:33:35.135Z,6.00
2018-12-20T18:36:11.024Z,7.80
2018-12-20T18:38:44.699Z,6.63
2018-12-20T18:41:18.665Z,6.80
2018-12-20T18:43:54.117Z,6.57
2018-12-20T18:46:29.183Z,7.03
2018-12-20T18:49:03.357Z,5.20
2018-12-20T18:51:37.228Z,5.10
2018-12-20T18:54:11.082Z,9.13
2018-12-20T18:56:44.889Z,7.20
2018-12-20T18:59:18.697Z,8.00
2018-12-20T19:01:52.546Z,8.47
2018-12-20T19:04:26.352Z,9.30
2018-12-20T19:07:00.220Z,8.27
2018-12-20T19:09:34.203Z,5.63
2018-12-20T19:12:07.929Z,6.27
2018-12-20T19:14:41.754Z,7.10
2018-12-20T19:17:15.601Z,7.90
2018-12-20T19:19:56.159Z,7.43
2018-12-20T19:22:25.659Z,8.07
2018-12-20T19:25:00.916Z,6.70
2018-12-20T19:27:35.179Z,9.93
2018-12-20T19:30:09.256Z,7.37
2018-12-20T19:32:43.054Z,8.60
2018-12-20T19:35:16.977Z,11.77
2018-12-20T19:37:50.716Z,7.27
2018-12-20T19:40:24.528Z,10.77
2018-12-20T19:42:58.299Z,11.13
2018-12-20T19:45:32.153Z,8.20
2018-12-20T19:48:05.901Z,7.93
2018-12-20T19:50:39.784Z,7.40
2018-12-20T19:53:13.689Z,7.10
2018-12-20T19:55:47.529Z,6.60
2018-12-20T19:58:21.524Z,7.00
2018-12-20T20:00:55.356Z,11.17
2018-12-20T20:03:29.244Z,9.63
2018-12-20T20:06:03.075Z,8.07
2018-12-20T20:08:36.901Z,8.53
2018-12-20T20:11:10.692Z,12.13
2018-12-20T20:13:44.508Z,10.60
2018-12-20T20:16:18.268Z,12.93
2018-12-20T20:18:52.093Z,12.53
2018-12-20T20:21:26.007Z,11.60
2018-12-20T20:23:59.813Z,12.40
2018-12-20T20:26:33.634Z,13.70
2018-12-20T20:29:08.348Z,14.37
2018-12-20T20:31:42.140Z,15.50
2018-12-20T20:34:16.984Z,14.90
2018-12-20T20:36:58.063Z,17.57
2018-12-20T20:39:32.345Z,15.97
2018-12-20T20:42:06.184Z,14.23
2018-12-20T20:44:40.341Z,16.63
2018-12-20T20:47:14.370Z,15.70
2018-12-20T20:49:53.522Z,15.77
2018-12-20T20:52:28.785Z,16.47
2018-12-20T20:55:06.432Z,19.70
2018-12-20T20:57:40.441Z,17.43
2018-12-20T21:00:17.669Z,16.83
2018-12-20T21:02:54.895Z,14.63
2018-12-20T21:05:29.432Z,17.50
2018-12-20T21:08:06.659Z,15.47
2018-12-20T21:10:40.783Z,17.03
2018-12-20T21:13:14.925Z,13.53
2018-12-20T21:15:48.864Z,14.43
2018-12-20T21:18:22.776Z,18.73
2018-12-20T21:20:56.607Z,12.33
2018-12-20T21:23:30.402Z,13.23
2018-12-20T21:26:04.406Z,13.10
2018-12-20T21:28:40.064Z,14.90
2018-12-20T21:31:13.764Z,11.13
2018-12-20T21:33:47.780Z,11.63
2018-12-20T21:36:21.534Z,13.03
2018-12-20T21:38:55.431Z,11.90
2018-12-20T21:41:29.073Z,13.30
2018-12-20T21:44:04.224Z,13.33
2018-12-20T21:46:38.317Z,11.93
2018-12-20T21:49:12.255Z,13.20
2018-12-20T21:51:46.225Z,13.23
2018-12-20T21:54:20.121Z,12.37
2018-12-20T21:56:54.067Z,13.40
2018-12-20T21:59:27.872Z,14.50
2018-12-20T22:02:01.665Z,13.50
2018-12-20T22:04:35.508Z,14.83
2018-12-20T22:07:09.446Z,14.53
2018-12-20T22:09:43.485Z,13.50
2018-12-20T22:12:17.241Z,14.47
2018-12-20T22:14:51.191Z,15.57
2018-12-20T22:17:25.208Z,13.57
2018-12-20T22:19:58.998Z,13.57
2018-12-20T22:22:32.989Z,13.90
2018-12-20T22:25:07.039Z,14.70
2018-12-20T22:27:40.873Z,14.40
2018-12-20T22:30:14.727Z,14.07
2018-12-20T22:32:48.621Z,11.07
2018-12-20T22:35:22.443Z,13.80
2018-12-20T22:37:56.230Z,12.03
2018-12-20T22:40:30.007Z,13.37
2018-12-20T22:43:03.781Z,12.40
2018-12-20T22:45:37.628Z,11.63
2018-12-20T22:48:11.401Z,14.23
2018-12-20T22:50:45.279Z,15.33
2018-12-20T22:53:19.177Z,14.03
2018-12-20T22:55:53.306Z,14.70
2018-12-20T22:58:27.126Z,15.23
2018-12-20T23:01:03.101Z,14.93
2018-12-20T23:03:37.089Z,13.07
2018-12-20T23:06:10.960Z,14.17
2018-12-20T23:08:44.833Z,18.13
2018-12-20T23:11:18.477Z,17.57
2018-12-20T23:13:52.285Z,18.47
2018-12-20T23:16:26.177Z,15.90
2018-12-20T23:19:00.016Z,14.70
2018-12-20T23:21:33.829Z,17.77
2018-12-20T23:24:07.740Z,15.93
2018-12-20T23:26:41.614Z,17.20
2018-12-20T23:29:15.423Z,12.40
2018-12-20T23:31:49.249Z,14.97
2018-12-20T23:34:23.046Z,15.97
2018-12-20T23:36:56.897Z,14.70
2018-12-20T23:39:30.714Z,16.00
2018-12-20T23:42:04.635Z,16.47
2018-12-20T23:44:38.468Z,13.93
2018-12-20T23:47:12.217Z,17.90
2018-12-20T23:49:46.143Z,14.83
2018-12-20T23:52:19.940Z,15.67
2018-12-20T23:54:53.795Z,15.13
2018-12-20T23:57:27.673Z,14.63
